PGRO/ROP METAR and TAF weather

Enter ICAO airport designator
Station Type Date Time Source
PGRO METAR 2019/04/20 22:50 UTC NOAA

PGRO 202250Z 09015KT 7SM FEW015 SCT100 28/20 A2989 RMK WIND DATA ESTIMATED


Station Type Date Time Source
PGRO Decoded METAR 2019/04/20 22:50 UTC NOAA

Rota Island, N. Mariana Is, Rota International Airport, GU, United States (PGRO) 14-11N 145-15E
Apr 20, 2019 - 06:50 PM EDT / 2019.04.20 2250 UTC
Wind: from the E (090 degrees) at 17 MPH (15 KT):0
Visibility: 7 mile(s):0
Sky conditions: partly cloudy
Temperature: 82 F (28 C)
Dew Point: 68 F (20 C)
Relative Humidity: 61%
Pressure (altimeter): 29.89 in. Hg (1012 hPa)
ob: PGRO 202250Z 09015KT 7SM FEW015 SCT100 28/20 A2989 RMK WIND DATA ESTIMATED
cycle: 23

Station Type Date Time Source
PGRO TAF 2019/04/20 22:12 UTC NOAA

TAF PGRO 202211Z 2022/2118 09015KT P6SM SCT015

Example: see airport list